Time;durP1;ratioP1;P1;durP2;ratioP2;P2;SDS_P1;SDS_P2;PMS_P1;PMS_P2;Temp;Humidity;BMP_temperature;BMP_pressure;BME280_temperature;BME280_humidity;BME280_pressure;Samples;Min_cycle;Max_cycle;Signal;HPM_P1;HPM_P2
2022/04/01 00:01:41;;;;;;;4.13;0.55;;;0.80;99.90;;;;;;5027220;28;20037;-72
2022/04/01 00:04:06;;;;;;;0.90;0.60;;;0.80;99.90;;;;;;5043514;28;20044;-72
2022/04/01 00:06:32;;;;;;;1.40;0.68;;;0.80;99.90;;;;;;5039544;28;20079;-72
2022/04/01 00:08:57;;;;;;;1.30;0.63;;;0.80;99.90;;;;;;5043328;28;20379;-72
2022/04/01 00:11:23;;;;;;;2.90;0.40;;;0.80;99.90;;;;;;5045163;28;20073;-72
2022/04/01 00:13:49;;;;;;;0.50;0.50;;;0.80;99.90;;;;;;5042885;28;20039;-72
2022/04/01 00:16:16;;;;;;;0.50;0.50;;;0.80;99.90;;;;;;5027914;28;20535;-72
2022/04/01 00:18:41;;;;;;;0.28;0.22;;;0.80;99.90;;;;;;5040399;28;20047;-72
2022/04/01 00:21:07;;;;;;;0.43;0.40;;;0.80;99.90;;;;;;5057701;28;20041;-72
2022/04/01 00:23:33;;;;;;;2.20;0.80;;;0.80;99.90;;;;;;5027822;28;20072;-72
2022/04/01 00:25:58;;;;;;;0.55;0.32;;;0.80;99.90;;;;;;5043129;28;20419;-72
2022/04/01 00:28:24;;;;;;;3.30;0.85;;;0.80;99.90;;;;;;5042254;28;20036;-72
2022/04/01 00:30:50;;;;;;;0.47;0.40;;;0.80;99.90;;;;;;5039692;28;20033;-72
2022/04/01 00:33:16;;;;;;;2.13;0.60;;;0.80;99.90;;;;;;5043363;28;20100;-72
2022/04/01 00:35:42;;;;;;;0.65;0.60;;;0.90;99.90;;;;;;5042359;28;20114;-72
2022/04/01 00:38:08;;;;;;;0.35;0.35;;;0.90;99.90;;;;;;5028017;28;20622;-72
2022/04/01 00:40:35;;;;;;;0.88;0.68;;;0.90;99.90;;;;;;5058503;28;20041;-72
2022/04/01 00:43:01;;;;;;;0.20;0.20;;;0.90;99.90;;;;;;5042264;28;20136;-72
2022/04/01 00:45:27;;;;;;;0.98;0.70;;;0.90;99.90;;;;;;5041773;28;20124;-72
2022/04/01 00:47:54;;;;;;;0.35;0.30;;;1.00;99.90;;;;;;5044831;28;20086;-72
2022/04/01 00:50:20;;;;;;;0.38;0.22;;;1.00;99.90;;;;;;5042150;28;20522;-72
2022/04/01 00:52:45;;;;;;;0.22;0.17;;;1.00;99.90;;;;;;5043525;28;20048;-72
2022/04/01 00:55:11;;;;;;;1.67;0.60;;;1.00;99.90;;;;;;5043870;28;20029;-72
2022/04/01 00:57:37;;;;;;;1.00;0.38;;;1.00;99.90;;;;;;5045361;28;20033;-72
2022/04/01 01:00:07;;;;;;;1.75;1.00;;;1.00;99.90;;;;;;5045326;28;20116;-72
2022/04/01 01:02:34;;;;;;;0.93;0.45;;;1.00;99.90;;;;;;5059106;28;20501;-72
2022/04/01 01:05:00;;;;;;;0.75;0.50;;;1.00;99.90;;;;;;5042546;28;20037;-72
2022/04/01 01:07:26;;;;;;;1.15;0.68;;;1.00;99.90;;;;;;5043543;28;20040;-72
2022/04/01 01:09:52;;;;;;;1.10;0.73;;;1.10;99.90;;;;;;5041873;28;20055;-72
2022/04/01 01:12:19;;;;;;;1.35;0.82;;;1.00;99.90;;;;;;5056550;28;20495;-73
2022/04/01 01:14:44;;;;;;;0.98;0.52;;;1.10;99.90;;;;;;5042013;28;20051;-72
2022/04/01 01:17:12;;;;;;;0.30;0.30;;;1.00;99.90;;;;;;5058018;28;20135;-72
2022/04/01 01:19:39;;;;;;;0.52;0.45;;;1.10;99.90;;;;;;5055558;28;20398;-72
2022/04/01 01:22:06;;;;;;;0.82;0.68;;;1.10;99.90;;;;;;5041504;28;20552;-72
2022/04/01 01:24:34;;;;;;;1.48;0.50;;;1.10;99.90;;;;;;5039969;28;20493;-72
2022/04/01 01:27:00;;;;;;;2.58;0.68;;;1.10;99.90;;;;;;5027381;28;20156;-72
2022/04/01 01:29:28;;;;;;;9.73;0.50;;;1.10;99.90;;;;;;5042368;28;20600;-72
2022/04/01 01:31:56;;;;;;;0.43;0.40;;;1.10;99.90;;;;;;5041173;28;20041;-72
2022/04/01 01:34:23;;;;;;;1.20;0.77;;;1.20;99.90;;;;;;5039395;28;20044;-72
2022/04/01 01:36:50;;;;;;;0.30;0.30;;;1.20;99.90;;;;;;5042476;28;20654;-72
2022/04/01 01:39:16;;;;;;;0.30;0.28;;;1.20;99.90;;;;;;5025917;28;20181;-72
2022/04/01 01:41:43;;;;;;;0.30;0.30;;;1.20;99.90;;;;;;5059693;28;20036;-72
2022/04/01 01:44:08;;;;;;;1.85;0.82;;;1.20;99.90;;;;;;5042781;28;20478;-72
2022/04/01 01:46:34;;;;;;;1.00;0.50;;;1.20;99.90;;;;;;5039910;28;20041;-72
2022/04/01 01:49:00;;;;;;;1.73;0.75;;;1.20;99.90;;;;;;5025642;28;20126;-72
2022/04/01 01:56:54;;;;;;;0.32;0.30;;;1.20;99.90;;;;;;5044337;28;20076;-72
2022/04/01 01:59:20;;;;;;;1.90;0.80;;;1.20;99.90;;;;;;5044784;28;20060;-72
2022/04/01 02:01:45;;;;;;;1.88;0.60;;;1.10;99.90;;;;;;5060194;28;20029;-72
2022/04/01 02:04:11;;;;;;;0.65;0.50;;;1.20;99.90;;;;;;5045988;28;20033;-72
2022/04/01 02:06:38;;;;;;;1.83;0.90;;;1.20;99.90;;;;;;5042601;28;20045;-72
2022/04/01 02:09:03;;;;;;;1.35;0.75;;;1.20;99.90;;;;;;5045861;28;20057;-72
2022/04/01 02:11:29;;;;;;;0.50;0.50;;;1.10;99.90;;;;;;5028811;28;20039;-72
2022/04/01 02:13:54;;;;;;;0.63;0.50;;;1.20;99.90;;;;;;5045882;28;20055;-72
2022/04/01 02:16:23;;;;;;;0.22;0.22;;;1.10;99.90;;;;;;5045617;28;20117;-72
2022/04/01 02:18:49;;;;;;;0.90;0.50;;;1.10;99.90;;;;;;5059256;28;20046;-72
2022/04/01 02:21:16;;;;;;;0.40;0.32;;;1.10;99.90;;;;;;5045646;28;20060;-72
2022/04/01 02:23:47;;;;;;;0.80;0.38;;;1.10;99.90;;;;;;5031379;28;20067;-72
2022/04/01 02:26:14;;;;;;;0.70;0.45;;;1.10;99.90;;;;;;5046006;28;20040;-72
2022/04/01 02:28:42;;;;;;;0.63;0.60;;;1.10;99.90;;;;;;5062051;28;20045;-72
2022/04/01 02:31:08;;;;;;;0.85;0.45;;;1.10;99.90;;;;;;5060027;28;20036;-72
2022/04/01 02:33:35;;;;;;;3.03;0.70;;;1.10;99.90;;;;;;5045049;28;20043;-72
2022/04/01 02:36:03;;;;;;;0.68;0.50;;;1.00;99.90;;;;;;5045975;28;20111;-72
2022/04/01 02:38:30;;;;;;;1.85;1.23;;;1.00;99.90;;;;;;5045002;28;20021;-72
2022/04/01 02:40:58;;;;;;;0.70;0.40;;;1.00;99.90;;;;;;5063186;28;20033;-72
2022/04/01 02:43:24;;;;;;;1.02;0.57;;;1.00;99.90;;;;;;5045459;28;20098;-72
2022/04/01 02:45:50;;;;;;;1.23;0.85;;;1.00;99.90;;;;;;5043173;28;20041;-72
2022/04/01 02:48:17;;;;;;;0.50;0.30;;;1.00;99.90;;;;;;5027836;28;20035;-72
2022/04/01 02:50:44;;;;;;;1.55;0.70;;;1.10;99.90;;;;;;5030785;28;20040;-72
2022/04/01 02:53:11;;;;;;;1.45;0.55;;;1.10;99.90;;;;;;5047369;28;20029;-72
2022/04/01 02:55:37;;;;;;;0.50;0.40;;;1.00;99.90;;;;;;5046798;28;20122;-72
2022/04/01 02:58:05;;;;;;;0.88;0.65;;;1.00;99.90;;;;;;5063145;28;20479;-72
2022/04/01 03:00:32;;;;;;;1.17;0.63;;;1.10;99.90;;;;;;5043715;28;20048;-72
2022/04/01 03:02:57;;;;;;;1.15;0.43;;;1.10;99.90;;;;;;5044665;28;20049;-72
2022/04/01 03:05:23;;;;;;;0.93;0.85;;;1.10;99.90;;;;;;5029799;28;20052;-72
2022/04/01 03:07:49;;;;;;;1.08;0.60;;;1.10;99.90;;;;;;5060781;28;20037;-72
2022/04/01 03:10:14;;;;;;;0.50;0.40;;;1.10;99.90;;;;;;5043014;28;20041;-72
2022/04/01 03:12:40;;;;;;;0.65;0.47;;;1.10;99.90;;;;;;5045667;28;20056;-72
2022/04/01 03:15:06;;;;;;;0.98;0.75;;;1.10;99.90;;;;;;5063045;28;20040;-72
2022/04/01 03:17:32;;;;;;;0.85;0.85;;;1.20;99.90;;;;;;5041709;28;20182;-72
2022/04/01 03:19:59;;;;;;;0.77;0.38;;;1.20;99.90;;;;;;5046382;28;20044;-72
2022/04/01 03:22:25;;;;;;;0.93;0.50;;;1.20;99.90;;;;;;5045882;28;20095;-72
2022/04/01 03:24:51;;;;;;;0.15;0.15;;;1.20;99.90;;;;;;5061764;28;20044;-72
2022/04/01 03:27:17;;;;;;;0.57;0.30;;;1.30;99.90;;;;;;5046738;28;20402;-72
2022/04/01 03:29:42;;;;;;;4.90;0.63;;;1.30;99.90;;;;;;5044083;28;20576;-72
2022/04/01 03:32:10;;;;;;;1.00;0.47;;;1.30;99.90;;;;;;5041628;28;20033;-72
2022/04/01 03:34:36;;;;;;;1.55;0.80;;;1.30;99.90;;;;;;5044272;28;20045;-72
2022/04/01 03:37:04;;;;;;;1.40;0.40;;;1.30;99.90;;;;;;5045832;28;20175;-72
2022/04/01 03:39:34;;;;;;;0.85;0.43;;;1.30;99.90;;;;;;5044799;28;20417;-72
2022/04/01 03:42:03;;;;;;;0.43;0.35;;;1.30;99.90;;;;;;5042432;28;20414;-72
2022/04/01 03:44:29;;;;;;;0.38;0.30;;;1.40;99.90;;;;;;5044728;28;20045;-72
2022/04/01 03:47:10;;;;;;;0.52;0.22;;;1.30;99.90;;;;;;5043023;28;20103;-72
2022/04/01 03:49:49;;;;;;;1.25;0.57;;;1.40;99.90;;;;;;5056198;28;20545;-72
2022/04/01 03:52:17;;;;;;;4.57;0.50;;;1.40;99.90;;;;;;5040640;28;20545;-72
2022/04/01 03:54:46;;;;;;;0.80;0.40;;;1.40;99.90;;;;;;5045199;28;20060;-73
2022/04/01 03:57:14;;;;;;;0.50;0.50;;;1.40;99.90;;;;;;5026894;28;20039;-73
2022/04/01 03:59:41;;;;;;;1.15;0.40;;;1.40;99.90;;;;;;5042004;28;20441;-72
2022/04/01 04:02:12;;;;;;;0.55;0.30;;;1.40;99.90;;;;;;5043579;28;20044;-72
2022/04/01 04:04:39;;;;;;;1.65;0.75;;;1.50;99.90;;;;;;5059252;28;20494;-72
2022/04/01 04:07:09;;;;;;;0.55;0.45;;;1.40;99.90;;;;;;5060330;28;20039;-72
2022/04/01 04:09:39;;;;;;;0.75;0.40;;;1.40;99.90;;;;;;5043959;28;20403;-72
2022/04/01 04:12:07;;;;;;;1.60;0.80;;;1.50;99.90;;;;;;5043137;28;20068;-72
2022/04/01 04:14:33;;;;;;;0.80;0.47;;;1.50;99.90;;;;;;5056875;28;20064;-72
2022/04/01 04:17:11;;;;;;;1.33;0.52;;;1.50;99.90;;;;;;5055247;28;21730;-72
2022/04/01 04:19:54;;;;;;;1.45;0.50;;;1.50;99.90;;;;;;5040376;28;20033;-72
2022/04/01 04:22:29;;;;;;;2.08;0.80;;;1.50;99.90;;;;;;5034259;28;20148;-72
2022/04/01 04:25:04;;;;;;;0.82;0.50;;;1.50;99.90;;;;;;5059475;28;20055;-72
2022/04/01 04:27:33;;;;;;;3.67;1.13;;;1.50;99.90;;;;;;5061816;28;20430;-72
2022/04/01 04:30:07;;;;;;;0.70;0.45;;;1.60;99.90;;;;;;5041998;28;20071;-72
2022/04/01 04:32:39;;;;;;;0.82;0.70;;;1.50;99.90;;;;;;5059931;28;20665;-72
2022/04/01 04:35:10;;;;;;;3.00;0.52;;;1.50;99.90;;;;;;5041676;28;20033;-72
2022/04/01 04:37:37;;;;;;;2.35;0.60;;;1.50;99.90;;;;;;5042782;28;20033;-72
2022/04/01 04:40:04;;;;;;;2.17;0.50;;;1.50;99.90;;;;;;5026890;28;20040;-72
2022/04/01 04:42:32;;;;;;;1.33;0.28;;;1.50;99.90;;;;;;5043226;28;20052;-72
2022/04/01 04:44:58;;;;;;;0.40;0.25;;;1.60;99.90;;;;;;5023347;28;20040;-72
2022/04/01 04:47:29;;;;;;;2.58;0.55;;;1.50;99.90;;;;;;5039909;28;20887;-72
2022/04/01 04:49:57;;;;;;;0.80;0.30;;;1.60;99.90;;;;;;5042253;28;20049;-72
2022/04/01 04:52:29;;;;;;;2.92;0.43;;;1.60;99.90;;;;;;5041791;28;20648;-73
2022/04/01 04:54:55;;;;;;;0.90;0.52;;;1.60;99.90;;;;;;5043797;28;20090;-72
2022/04/01 04:57:21;;;;;;;0.50;0.30;;;1.60;99.90;;;;;;5059542;28;20036;-72
2022/04/01 04:59:48;;;;;;;0.77;0.47;;;1.60;99.90;;;;;;5040148;28;20044;-72
2022/04/01 05:02:44;;;;;;;0.30;0.30;;;1.60;99.90;;;;;;5044388;28;20478;-72
2022/04/01 05:05:15;;;;;;;1.75;0.57;;;1.60;99.90;;;;;;5040578;28;20044;-72
2022/04/01 05:08:26;;;;;;;0.20;0.20;;;1.60;99.90;;;;;;5044762;28;20102;-72
2022/04/01 05:11:05;;;;;;;1.45;0.50;;;1.60;99.90;;;;;;5060848;28;20055;-72
2022/04/01 05:13:58;;;;;;;0.55;0.30;;;1.60;99.90;;;;;;5042599;28;20033;-72
2022/04/01 05:16:47;;;;;;;0.55;0.38;;;1.60;99.90;;;;;;5056934;28;20037;-72
2022/04/01 05:19:13;;;;;;;0.55;0.35;;;1.60;99.90;;;;;;5042570;28;20037;-72
2022/04/01 05:21:58;;;;;;;0.40;0.20;;;1.60;99.90;;;;;;5044132;28;20040;-72
2022/04/01 05:24:30;;;;;;;0.77;0.47;;;1.60;99.90;;;;;;5039723;28;20102;-72
2022/04/01 05:27:02;;;;;;;0.75;0.52;;;1.70;99.90;;;;;;5044823;28;20329;-72
2022/04/01 05:29:42;;;;;;;0.60;0.30;;;1.60;99.90;;;;;;5029214;28;20528;-72
2022/04/01 05:32:13;;;;;;;0.10;0.10;;;1.70;99.90;;;;;;5048720;28;20060;-72
2022/04/01 05:34:43;;;;;;;0.57;0.50;;;1.70;99.90;;;;;;5030445;28;20037;-72
2022/04/01 05:37:09;;;;;;;0.45;0.43;;;1.70;99.90;;;;;;5047454;28;20035;-72
2022/04/01 05:39:41;;;;;;;3.17;0.32;;;1.70;99.90;;;;;;5044105;28;20049;-72
2022/04/01 05:42:07;;;;;;;3.67;0.80;;;1.70;99.90;;;;;;5045435;28;20037;-72
2022/04/01 05:44:34;;;;;;;0.10;0.10;;;1.70;99.90;;;;;;5046435;28;20541;-72
2022/04/01 05:47:01;;;;;;;0.50;0.50;;;1.70;99.90;;;;;;5030158;28;20040;-72
2022/04/01 05:49:27;;;;;;;2.17;0.40;;;1.70;99.90;;;;;;5026430;28;20033;-72
2022/04/01 05:51:53;;;;;;;0.68;0.22;;;1.70;99.90;;;;;;5042639;28;20037;-72
2022/04/01 05:54:22;;;;;;;1.15;0.60;;;1.70;99.90;;;;;;5045893;28;20037;-73
2022/04/01 05:56:49;;;;;;;0.57;0.30;;;1.80;99.90;;;;;;5046980;28;20148;-72
2022/04/01 05:59:17;;;;;;;1.10;0.30;;;1.80;99.90;;;;;;5045357;28;20041;-72
2022/04/01 06:01:52;;;;;;;0.50;0.25;;;1.80;99.90;;;;;;5044409;28;20124;-72
2022/04/01 06:04:34;;;;;;;2.00;0.50;;;1.80;99.90;;;;;;5046776;28;20135;-72
2022/04/01 06:07:15;;;;;;;0.22;0.22;;;1.80;99.90;;;;;;5043143;28;20133;-72
2022/04/01 06:10:05;;;;;;;0.32;0.20;;;1.90;99.90;;;;;;5042290;28;20163;-72
2022/04/01 06:12:58;;;;;;;0.17;0.17;;;1.90;99.90;;;;;;5043358;28;20044;-72
2022/04/01 06:16:02;;;;;;;0.47;0.30;;;1.90;99.90;;;;;;5043969;28;20037;-72
2022/04/01 06:18:41;;;;;;;0.70;0.50;;;1.90;99.90;;;;;;5044770;28;20037;-72
2022/04/01 06:21:09;;;;;;;3.05;0.80;;;1.90;99.90;;;;;;5026859;28;20064;-72
2022/04/01 06:23:49;;;;;;;1.05;0.22;;;1.90;99.90;;;;;;5027685;28;20648;-72
2022/04/01 06:26:16;;;;;;;1.05;0.52;;;1.90;99.90;;;;;;5042223;28;20047;-72
2022/04/01 06:29:25;;;;;;;0.63;0.40;;;2.00;99.90;;;;;;5043769;28;20033;-74
2022/04/01 06:32:01;;;;;;;0.68;0.50;;;2.00;99.90;;;;;;5014809;28;20522;-72
2022/04/01 06:34:49;;;;;;;0.63;0.40;;;2.00;99.90;;;;;;5044894;28;20041;-72
2022/04/01 06:37:22;;;;;;;0.40;0.40;;;2.00;99.90;;;;;;5039238;28;20036;-72
2022/04/01 06:40:10;;;;;;;0.35;0.35;;;2.00;99.90;;;;;;5028636;28;20041;-72
2022/04/01 06:42:37;;;;;;;0.50;0.20;;;2.10;99.90;;;;;;5043447;28;20060;-72
2022/04/01 06:45:08;;;;;;;5.03;0.40;;;2.10;99.90;;;;;;5039691;28;20115;-72
2022/04/01 06:47:35;;;;;;;0.68;0.22;;;2.10;99.90;;;;;;5047707;28;20048;-72
2022/04/01 06:50:01;;;;;;;0.50;0.20;;;2.10;99.90;;;;;;5041920;28;20044;-72
2022/04/01 06:52:27;;;;;;;1.48;0.20;;;2.20;99.90;;;;;;5040017;28;20056;-72
2022/04/01 06:54:54;;;;;;;0.17;0.17;;;2.20;99.90;;;;;;5043881;28;20134;-72
2022/04/01 06:57:21;;;;;;;0.55;0.38;;;2.20;99.90;;;;;;5061468;28;20025;-72
2022/04/01 06:59:46;;;;;;;2.63;0.73;;;2.20;99.90;;;;;;5039083;28;20436;-72
2022/04/01 07:02:12;;;;;;;0.98;0.52;;;2.20;99.90;;;;;;5022434;28;20052;-72
2022/04/01 07:04:38;;;;;;;1.13;0.55;;;2.20;99.90;;;;;;5041131;28;20044;-72
2022/04/01 07:07:04;;;;;;;0.30;0.22;;;2.20;99.90;;;;;;5044025;28;20039;-72
2022/04/01 07:09:30;;;;;;;0.35;0.20;;;2.20;99.90;;;;;;5063360;28;20075;-71
2022/04/01 07:12:01;;;;;;;0.20;0.20;;;2.30;99.90;;;;;;5025028;28;20033;-72
2022/04/01 07:14:31;;;;;;;0.57;0.40;;;2.30;99.90;;;;;;5041327;28;20063;-72
2022/04/01 07:16:57;;;;;;;1.25;0.52;;;2.20;99.90;;;;;;5056277;28;20045;-71
2022/04/01 07:19:23;;;;;;;0.73;0.30;;;2.30;99.90;;;;;;5043711;28;20056;-72
2022/04/01 07:21:49;;;;;;;1.05;0.57;;;2.30;99.90;;;;;;5039274;28;20037;-71
2022/04/01 07:24:15;;;;;;;1.15;0.38;;;2.30;99.90;;;;;;5045625;28;20135;-72
2022/04/01 07:26:43;;;;;;;0.52;0.30;;;2.30;99.90;;;;;;5020695;28;20168;-71
2022/04/01 07:29:09;;;;;;;2.60;0.50;;;2.30;99.90;;;;;;5055167;28;20483;-72
2022/04/01 07:34:35;;;;;;;1.00;0.60;;;2.30;99.90;;;;;;5041635;28;20044;-72
2022/04/01 07:37:02;;;;;;;3.17;0.50;;;2.30;99.90;;;;;;5028829;28;20032;-71
2022/04/01 07:39:27;;;;;;;1.40;0.43;;;2.20;99.90;;;;;;5058768;28;20123;-72
2022/04/01 07:41:53;;;;;;;0.55;0.40;;;2.20;99.90;;;;;;5033971;28;20128;-71
2022/04/01 07:44:19;;;;;;;0.40;0.30;;;2.20;99.90;;;;;;5048142;28;20032;-72
2022/04/01 07:46:45;;;;;;;0.43;0.30;;;2.20;99.90;;;;;;5030903;28;20111;-71
2022/04/01 07:49:11;;;;;;;1.52;0.70;;;2.20;99.90;;;;;;5031900;28;20052;-71
2022/04/01 07:51:37;;;;;;;3.17;0.77;;;2.20;99.90;;;;;;5047128;28;20090;-72
2022/04/01 07:54:03;;;;;;;0.38;0.32;;;2.20;99.90;;;;;;5046931;28;20033;-71
2022/04/01 07:56:31;;;;;;;0.88;0.52;;;2.20;99.90;;;;;;5030634;28;20041;-71
2022/04/01 07:59:00;;;;;;;2.25;1.02;;;2.10;99.90;;;;;;5047512;28;20041;-72
2022/04/01 08:01:26;;;;;;;0.75;0.40;;;2.20;99.90;;;;;;5046526;28;20136;-71
2022/04/01 08:03:52;;;;;;;0.60;0.45;;;2.10;99.90;;;;;;5043203;28;20127;-71
2022/04/01 08:06:18;;;;;;;0.82;0.40;;;2.10;99.90;;;;;;5047571;28;20052;-71
2022/04/01 08:08:43;;;;;;;1.40;0.50;;;2.10;99.90;;;;;;5047786;28;20260;-71
2022/04/01 08:11:09;;;;;;;2.90;0.60;;;2.10;99.90;;;;;;5047126;28;20033;-71
2022/04/01 08:13:35;;;;;;;1.17;0.93;;;2.10;99.90;;;;;;5045787;28;20041;-71
2022/04/01 08:16:01;;;;;;;0.68;0.43;;;2.20;99.90;;;;;;5046453;28;20568;-71
2022/04/01 08:18:27;;;;;;;1.38;0.75;;;2.20;99.90;;;;;;5047521;28;20037;-71
2022/04/01 08:20:52;;;;;;;3.58;1.15;;;2.20;99.90;;;;;;5047191;28;20048;-71
2022/04/01 08:23:19;;;;;;;1.60;0.75;;;2.20;99.90;;;;;;5047299;28;20136;-71
2022/04/01 08:25:45;;;;;;;1.33;1.00;;;2.20;99.90;;;;;;5046902;28;20053;-71
2022/04/01 08:28:11;;;;;;;2.78;1.02;;;2.30;99.90;;;;;;5044582;28;20055;-72
2022/04/01 08:30:36;;;;;;;0.68;0.63;;;2.30;99.90;;;;;;5045210;28;20036;-71
2022/04/01 08:33:02;;;;;;;2.00;1.00;;;2.30;99.90;;;;;;5046848;28;20076;-71
2022/04/01 08:35:28;;;;;;;5.13;1.60;;;2.40;99.90;;;;;;5047208;28;20049;-72
2022/04/01 08:37:55;;;;;;;5.22;1.38;;;2.40;99.90;;;;;;5045825;28;20045;-72
2022/04/01 08:40:21;;;;;;;2.38;1.23;;;2.40;99.90;;;;;;5042632;28;20045;-71
2022/04/01 08:42:47;;;;;;;1.85;1.05;;;2.50;99.90;;;;;;5038580;28;20040;-72
2022/04/01 08:45:16;;;;;;;1.83;1.20;;;2.50;99.90;;;;;;5043432;28;20068;-71
2022/04/01 08:47:42;;;;;;;6.20;1.42;;;2.50;99.90;;;;;;5046731;28;20135;-72
2022/04/01 08:50:08;;;;;;;3.83;1.80;;;2.50;99.90;;;;;;5056414;28;20572;-72
2022/04/01 08:52:34;;;;;;;3.70;1.92;;;2.50;99.90;;;;;;5041376;28;20082;-73
2022/04/01 08:55:09;;;;;;;3.03;1.70;;;2.60;99.90;;;;;;5021431;28;20534;-71
2022/04/01 08:57:40;;;;;;;1.52;0.93;;;2.60;99.90;;;;;;5038715;28;20041;-72
2022/04/01 09:00:14;;;;;;;1.92;1.30;;;2.60;99.90;;;;;;5037969;28;20231;-71
2022/04/01 09:02:41;;;;;;;4.10;1.67;;;2.60;99.90;;;;;;5028762;28;20498;-72
2022/04/01 09:05:08;;;;;;;3.55;1.17;;;2.70;99.90;;;;;;5037069;28;20053;-72
2022/04/01 09:07:34;;;;;;;4.93;2.10;;;2.70;99.90;;;;;;5053667;28;20686;-72
2022/04/01 09:10:07;;;;;;;3.08;1.30;;;2.70;99.90;;;;;;5036753;28;20310;-72
2022/04/01 09:12:34;;;;;;;2.83;1.67;;;2.70;99.90;;;;;;5036016;28;20127;-72
2022/04/01 09:15:01;;;;;;;3.45;1.33;;;2.70;99.90;;;;;;5039282;28;20049;-72
2022/04/01 09:18:02;;;;;;;4.32;1.38;;;2.60;99.90;;;;;;5035720;28;20510;-72
2022/04/01 09:20:28;;;;;;;2.92;1.70;;;2.60;99.90;;;;;;4944630;28;20169;-72
2022/04/01 09:22:58;;;;;;;3.90;1.30;;;2.60;99.90;;;;;;5027404;28;20358;-72
2022/04/01 09:25:24;;;;;;;3.70;2.03;;;2.60;99.90;;;;;;5021529;28;20390;-72
2022/04/01 09:27:52;;;;;;;4.10;1.80;;;2.60;99.90;;;;;;5040142;28;20075;-72
2022/04/01 09:30:24;;;;;;;3.85;1.65;;;2.60;99.90;;;;;;5035792;28;20056;-72
2022/04/01 09:32:52;;;;;;;5.25;1.58;;;2.60;99.90;;;;;;5039505;28;20037;-72
2022/04/01 09:35:22;;;;;;;2.53;1.20;;;2.60;99.90;;;;;;5033241;28;20384;-72
2022/04/01 09:37:54;;;;;;;2.75;1.50;;;2.60;99.90;;;;;;5025036;28;20039;-72
2022/04/01 09:40:22;;;;;;;7.30;1.73;;;2.50;99.90;;;;;;5025708;28;20364;-72
2022/04/01 09:42:53;;;;;;;2.03;1.30;;;2.50;99.90;;;;;;5038688;28;20071;-72
2022/04/01 09:45:27;;;;;;;3.90;1.23;;;2.50;99.90;;;;;;5033925;28;20041;-71
2022/04/01 09:48:01;;;;;;;3.83;1.73;;;2.60;99.90;;;;;;5054969;28;20133;-72
2022/04/01 09:50:30;;;;;;;3.85;1.95;;;2.70;99.90;;;;;;5021182;28;20056;-72
2022/04/01 09:53:11;;;;;;;3.75;1.95;;;2.70;99.90;;;;;;5035837;28;20541;-71
2022/04/01 09:55:39;;;;;;;3.60;1.60;;;2.70;99.90;;;;;;5054237;28;20127;-70
2022/04/01 09:58:06;;;;;;;2.97;1.50;;;2.70;99.90;;;;;;5055894;28;20458;-70
2022/04/01 10:00:33;;;;;;;3.80;2.08;;;2.70;99.90;;;;;;5054025;28;20135;-71
2022/04/01 10:02:59;;;;;;;1.58;1.02;;;2.70;99.90;;;;;;5036950;28;20048;-72
2022/04/01 10:05:28;;;;;;;1.90;1.20;;;2.60;99.90;;;;;;5045074;28;20041;-72
2022/04/01 10:07:55;;;;;;;4.68;1.15;;;2.70;99.90;;;;;;5055032;28;20051;-72
2022/04/01 10:10:21;;;;;;;4.45;1.50;;;2.70;99.90;;;;;;5036295;28;20029;-72
2022/04/01 10:12:47;;;;;;;4.07;1.52;;;2.80;99.90;;;;;;5036320;28;20568;-72
2022/04/01 10:15:14;;;;;;;4.60;2.08;;;2.80;99.90;;;;;;5038665;28;20530;-72
2022/04/01 10:17:41;;;;;;;2.80;1.40;;;2.80;99.90;;;;;;5026023;28;20050;-72
2022/04/01 10:20:08;;;;;;;4.90;2.17;;;2.90;99.90;;;;;;5056574;28;20033;-72
2022/04/01 10:22:36;;;;;;;4.45;1.70;;;3.00;99.90;;;;;;5024985;28;20080;-72
2022/04/01 10:25:20;;;;;;;2.78;1.50;;;3.00;99.90;;;;;;5038005;28;20037;-72
2022/04/01 10:27:52;;;;;;;3.47;1.42;;;3.10;99.90;;;;;;5025788;28;20049;-72
2022/04/01 10:30:20;;;;;;;2.88;0.98;;;3.00;99.90;;;;;;5056129;28;20088;-72
2022/04/01 10:32:47;;;;;;;2.97;1.67;;;3.00;99.90;;;;;;5042847;28;20115;-72
2022/04/01 10:35:30;;;;;;;2.97;1.50;;;3.00;99.90;;;;;;5039454;28;20036;-72
2022/04/01 10:38:16;;;;;;;0.90;0.80;;;2.90;99.90;;;;;;5021662;28;20082;-72
2022/04/01 10:40:45;;;;;;;1.17;0.80;;;2.80;99.90;;;;;;5014349;28;20565;-72
2022/04/01 10:43:14;;;;;;;4.28;0.90;;;2.70;99.90;;;;;;5026879;28;20036;-72
2022/04/01 10:45:43;;;;;;;2.22;1.00;;;2.70;99.90;;;;;;5030709;28;20045;-72
2022/04/01 10:54:01;;;;;;;4.18;0.88;;;2.90;99.90;;;;;;5032613;28;20033;-72
2022/04/01 10:56:29;;;;;;;2.00;1.10;;;2.90;99.90;;;;;;5018060;28;20045;-72
2022/04/01 10:59:07;;;;;;;2.00;0.88;;;2.90;99.90;;;;;;5022039;28;20037;-72
2022/04/01 11:01:37;;;;;;;1.40;0.70;;;2.90;99.90;;;;;;5039982;28;20079;-72
2022/04/01 11:04:11;;;;;;;1.48;1.00;;;2.90;99.90;;;;;;5037344;28;20048;-71
2022/04/01 11:06:55;;;;;;;3.65;0.95;;;2.90;99.90;;;;;;5040575;28;20033;-71
2022/04/01 11:09:47;;;;;;;0.95;0.60;;;2.90;99.90;;;;;;5036321;28;20041;-72
2022/04/01 11:12:15;;;;;;;1.83;1.15;;;2.80;99.90;;;;;;5055258;28;20127;-73
2022/04/01 11:14:56;;;;;;;1.73;0.82;;;2.80;99.90;;;;;;5040743;28;20383;-72
2022/04/01 11:17:24;;;;;;;1.90;0.85;;;2.90;99.90;;;;;;5040438;28;20033;-72
2022/04/01 11:20:12;;;;;;;1.02;0.60;;;2.90;99.90;;;;;;5043278;28;20049;-72
2022/04/01 11:22:40;;;;;;;0.98;0.50;;;2.90;99.90;;;;;;5029069;28;20449;-71
2022/04/01 11:25:24;;;;;;;1.58;0.63;;;3.00;99.90;;;;;;5037942;28;20483;-72
2022/04/01 11:27:56;;;;;;;1.25;0.88;;;3.10;99.90;;;;;;5026109;28;20414;-72
2022/04/01 11:30:26;;;;;;;1.10;0.60;;;3.20;99.90;;;;;;5026251;28;20479;-72
2022/04/01 11:33:06;;;;;;;2.75;1.08;;;3.20;99.90;;;;;;5042265;28;20048;-72
2022/04/01 11:35:34;;;;;;;1.05;0.47;;;3.20;99.90;;;;;;5022330;28;20033;-72
2022/04/01 11:38:01;;;;;;;1.65;0.73;;;3.20;99.90;;;;;;5027124;28;20044;-72
2022/04/01 11:40:29;;;;;;;0.80;0.47;;;3.20;99.90;;;;;;5041436;28;20375;-72
2022/04/01 11:43:03;;;;;;;1.58;0.80;;;3.20;99.90;;;;;;5058249;28;20219;-72
2022/04/01 11:45:33;;;;;;;1.08;0.32;;;3.30;99.90;;;;;;5021162;28;20477;-71
2022/04/01 11:48:15;;;;;;;1.20;0.60;;;3.40;99.90;;;;;;5039908;28;20045;-72
2022/04/01 11:50:50;;;;;;;0.98;0.32;;;3.40;99.90;;;;;;5039794;28;20033;-72
2022/04/01 11:53:23;;;;;;;1.17;0.52;;;3.40;99.90;;;;;;5053757;28;21309;-72
2022/04/01 11:55:49;;;;;;;0.40;0.40;;;3.40;99.90;;;;;;5036751;28;20041;-71
2022/04/01 11:58:15;;;;;;;3.63;0.77;;;3.30;99.90;;;;;;5057783;28;20036;-72
2022/04/01 12:00:42;;;;;;;2.58;0.52;;;3.30;99.90;;;;;;5021266;28;20045;-71
2022/04/01 12:03:09;;;;;;;4.72;1.08;;;3.30;99.90;;;;;;5040663;28;20123;-71
2022/04/01 12:05:35;;;;;;;3.03;0.73;;;3.30;99.90;;;;;;5039858;28;20036;-72
2022/04/01 12:10:55;;;;;;;1.85;0.65;;;3.20;99.90;;;;;;5052991;28;20041;-71
2022/04/01 12:13:21;;;;;;;0.73;0.32;;;3.20;99.90;;;;;;5038923;28;20033;-72
2022/04/01 12:15:48;;;;;;;0.55;0.40;;;3.20;99.90;;;;;;5039352;28;20029;-72
2022/04/01 12:18:16;;;;;;;0.70;0.40;;;3.20;99.90;;;;;;5039377;28;20029;-72
2022/04/01 12:20:44;;;;;;;0.25;0.22;;;3.10;99.90;;;;;;5024197;28;20129;-72
2022/04/01 12:23:10;;;;;;;0.77;0.57;;;3.10;99.90;;;;;;5050480;28;20096;-72
2022/04/01 12:25:38;;;;;;;1.50;0.80;;;3.10;99.90;;;;;;5039207;28;20037;-73
2022/04/01 12:28:10;;;;;;;1.15;0.50;;;3.10;99.90;;;;;;5034526;28;20289;-72
2022/04/01 12:30:42;;;;;;;0.82;0.55;;;3.00;99.90;;;;;;5038560;28;20346;-71
2022/04/01 12:33:21;;;;;;;1.00;0.63;;;3.10;99.90;;;;;;5039739;28;20191;-72
2022/04/01 12:35:58;;;;;;;1.00;0.70;;;3.10;99.90;;;;;;5040385;28;20505;-71
2022/04/01 12:38:25;;;;;;;1.42;0.60;;;3.20;99.90;;;;;;5039114;28;20033;-72
2022/04/01 12:40:56;;;;;;;1.98;0.90;;;3.30;99.90;;;;;;5034228;28;20041;-71
2022/04/01 12:43:29;;;;;;;0.57;0.40;;;3.40;99.90;;;;;;5040339;28;20037;-72
2022/04/01 12:46:07;;;;;;;0.45;0.30;;;3.50;99.90;;;;;;5037527;28;20052;-72
2022/04/01 12:48:42;;;;;;;0.60;0.45;;;3.50;99.90;;;;;;5035008;28;20041;-72
2022/04/01 12:51:08;;;;;;;1.20;0.50;;;3.60;99.90;;;;;;5043777;28;20460;-71
2022/04/01 12:53:35;;;;;;;0.60;0.38;;;3.70;99.90;;;;;;5052309;28;20112;-72
2022/04/01 12:56:18;;;;;;;0.93;0.55;;;3.80;99.90;;;;;;5024458;28;20029;-71
2022/04/01 12:58:55;;;;;;;1.75;0.65;;;3.80;99.90;;;;;;5039052;28;20112;-72
2022/04/01 13:01:24;;;;;;;2.33;0.40;;;3.90;99.90;;;;;;5052814;28;20107;-72
2022/04/01 13:03:50;;;;;;;1.48;0.80;;;3.90;99.90;;;;;;5037394;28;20059;-72
2022/04/01 13:06:16;;;;;;;0.55;0.47;;;3.90;99.90;;;;;;5036624;28;20037;-72
2022/04/01 13:08:42;;;;;;;1.42;0.50;;;4.00;99.90;;;;;;5039122;28;20501;-72
2022/04/01 13:11:12;;;;;;;0.98;0.60;;;4.00;99.90;;;;;;5051250;28;20914;-72
2022/04/01 13:13:39;;;;;;;1.40;0.70;;;4.00;99.90;;;;;;5038672;28;20076;-72
2022/04/01 13:16:05;;;;;;;0.75;0.50;;;4.10;99.90;;;;;;5065644;28;20842;-72
2022/04/01 13:18:32;;;;;;;0.73;0.52;;;4.00;99.90;;;;;;5053955;28;20294;-72
2022/04/01 13:20:58;;;;;;;0.82;0.60;;;4.00;99.90;;;;;;5024678;28;20041;-72
2022/04/01 13:23:27;;;;;;;1.90;0.70;;;4.00;99.90;;;;;;5022827;28;20041;-72
2022/04/01 13:25:53;;;;;;;1.90;0.80;;;3.90;99.90;;;;;;5034887;28;20057;-72
2022/04/01 13:28:18;;;;;;;1.02;0.70;;;4.00;99.90;;;;;;5038326;28;20047;-72